sensor_id;sensor_type;location;lat;lon;timestamp;pressure;altitude;pressure_sealevel;temperature;humidity
59375;BME280;45172;55.006;73.460;2022-07-17T00:01:56;99462.41;;;15.78;100.00
59375;BME280;45172;55.006;73.460;2022-07-17T00:04:27;99460.88;;;16.12;100.00
59375;BME280;45172;55.006;73.460;2022-07-17T00:06:53;99467.25;;;16.46;100.00
59375;BME280;45172;55.006;73.460;2022-07-17T00:09:23;99465.25;;;16.93;100.00
59375;BME280;45172;55.006;73.460;2022-07-17T00:11:52;99469.13;;;17.52;100.00
59375;BME280;45172;55.006;73.460;2022-07-17T00:14:19;99458.09;;;17.95;98.44
59375;BME280;45172;55.006;73.460;2022-07-17T00:16:45;99462.75;;;18.20;97.10
59375;BME280;45172;55.006;73.460;2022-07-17T00:19:20;99466.50;;;18.44;95.75
59375;BME280;45172;55.006;73.460;2022-07-17T00:21:46;99471.69;;;18.49;95.02
59375;BME280;45172;55.006;73.460;2022-07-17T00:24:12;99478.75;;;18.53;95.22
59375;BME280;45172;55.006;73.460;2022-07-17T00:26:50;99480.38;;;18.57;93.91
59375;BME280;45172;55.006;73.460;2022-07-17T00:29:18;99479.38;;;18.88;93.24
59375;BME280;45172;55.006;73.460;2022-07-17T00:31:47;99466.53;;;19.27;91.50
59375;BME280;45172;55.006;73.460;2022-07-17T00:34:14;99476.50;;;19.74;89.51
59375;BME280;45172;55.006;73.460;2022-07-17T00:36:40;99474.59;;;20.27;87.40
59375;BME280;45172;55.006;73.460;2022-07-17T00:39:07;99479.66;;;20.81;85.13
59375;BME280;45172;55.006;73.460;2022-07-17T00:41:33;99482.94;;;21.10;83.60
59375;BME280;45172;55.006;73.460;2022-07-17T00:44:08;99490.88;;;21.35;81.78
59375;BME280;45172;55.006;73.460;2022-07-17T00:46:35;99489.63;;;21.65;81.39
59375;BME280;45172;55.006;73.460;2022-07-17T00:49:02;99478.31;;;21.78;80.64
59375;BME280;45172;55.006;73.460;2022-07-17T00:51:39;99493.34;;;22.02;80.35
59375;BME280;45172;55.006;73.460;2022-07-17T00:54:05;99489.81;;;22.21;79.94
59375;BME280;45172;55.006;73.460;2022-07-17T00:56:32;99491.06;;;22.33;79.00
59375;BME280;45172;55.006;73.460;2022-07-17T00:59:00;99495.72;;;22.50;78.56
59375;BME280;45172;55.006;73.460;2022-07-17T01:01:45;99492.91;;;22.52;78.33
59375;BME280;45172;55.006;73.460;2022-07-17T01:04:11;99480.09;;;22.57;77.50
59375;BME280;45172;55.006;73.460;2022-07-17T01:06:37;99499.53;;;22.83;77.90
59375;BME280;45172;55.006;73.460;2022-07-17T01:09:04;99498.59;;;22.84;77.88
59375;BME280;45172;55.006;73.460;2022-07-17T01:11:31;99496.88;;;23.01;76.73
59375;BME280;45172;55.006;73.460;2022-07-17T01:13:58;99503.31;;;22.98;77.20
59375;BME280;45172;55.006;73.460;2022-07-17T01:16:24;99515.59;;;22.86;77.38
59375;BME280;45172;55.006;73.460;2022-07-17T01:18:51;99505.81;;;22.83;77.36
59375;BME280;45172;55.006;73.460;2022-07-17T01:21:17;99503.13;;;22.64;77.75
59375;BME280;45172;55.006;73.460;2022-07-17T01:23:49;99523.97;;;22.41;78.64
59375;BME280;45172;55.006;73.460;2022-07-17T01:26:16;99509.38;;;21.86;81.15
59375;BME280;45172;55.006;73.460;2022-07-17T01:31:18;99523.84;;;21.20;84.85
59375;BME280;45172;55.006;73.460;2022-07-17T01:33:44;99531.91;;;21.63;83.79
59375;BME280;45172;55.006;73.460;2022-07-17T01:36:10;99529.59;;;22.16;81.76
59375;BME280;45172;55.006;73.460;2022-07-17T01:38:37;99529.78;;;22.53;80.40
59375;BME280;45172;55.006;73.460;2022-07-17T01:41:03;99519.59;;;22.58;80.34
59375;BME280;45172;55.006;73.460;2022-07-17T01:43:29;99531.34;;;22.57;79.65
59375;BME280;45172;55.006;73.460;2022-07-17T01:45:55;99547.09;;;22.66;80.64
59375;BME280;45172;55.006;73.460;2022-07-17T01:48:28;99541.38;;;22.34;81.11
59375;BME280;45172;55.006;73.460;2022-07-17T01:50:55;99546.56;;;22.39;81.14
59375;BME280;45172;55.006;73.460;2022-07-17T01:53:21;99548.47;;;22.37;81.60
59375;BME280;45172;55.006;73.460;2022-07-17T01:55:48;99553.78;;;22.38;80.88
59375;BME280;45172;55.006;73.460;2022-07-17T01:58:14;99553.13;;;22.33;81.10
59375;BME280;45172;55.006;73.460;2022-07-17T02:00:40;99561.88;;;22.38;82.71
59375;BME280;45172;55.006;73.460;2022-07-17T02:03:07;99565.66;;;22.34;81.93
59375;BME280;45172;55.006;73.460;2022-07-17T02:05:33;99573.22;;;22.26;82.53
59375;BME280;45172;55.006;73.460;2022-07-17T02:07:59;99578.78;;;22.23;82.62
59375;BME280;45172;55.006;73.460;2022-07-17T02:10:25;99576.75;;;22.07;83.88
59375;BME280;45172;55.006;73.460;2022-07-17T02:12:50;99582.28;;;22.04;83.52
59375;BME280;45172;55.006;73.460;2022-07-17T02:15:17;99580.69;;;22.00;84.53
59375;BME280;45172;55.006;73.460;2022-07-17T02:17:43;99586.53;;;21.89;84.85
59375;BME280;45172;55.006;73.460;2022-07-17T02:20:14;99583.31;;;21.81;85.24
59375;BME280;45172;55.006;73.460;2022-07-17T02:22:40;99590.50;;;21.80;85.78
59375;BME280;45172;55.006;73.460;2022-07-17T02:25:09;99599.69;;;21.76;86.04
59375;BME280;45172;55.006;73.460;2022-07-17T02:27:45;99594.41;;;21.73;86.30
59375;BME280;45172;55.006;73.460;2022-07-17T02:30:17;99600.28;;;21.83;86.31
59375;BME280;45172;55.006;73.460;2022-07-17T02:32:44;99601.75;;;21.68;87.16
59375;BME280;45172;55.006;73.460;2022-07-17T02:35:11;99602.75;;;21.44;87.92
59375;BME280;45172;55.006;73.460;2022-07-17T02:37:38;99616.09;;;21.25;89.21
59375;BME280;45172;55.006;73.460;2022-07-17T02:40:11;99627.00;;;20.74;90.06
59375;BME280;45172;55.006;73.460;2022-07-17T02:42:37;99627.53;;;20.60;92.24
59375;BME280;45172;55.006;73.460;2022-07-17T02:45:08;99622.44;;;20.52;92.11
59375;BME280;45172;55.006;73.460;2022-07-17T02:47:35;99624.66;;;20.65;93.41
59375;BME280;45172;55.006;73.460;2022-07-17T02:50:05;99634.31;;;20.71;93.14
59375;BME280;45172;55.006;73.460;2022-07-17T02:52:31;99648.31;;;20.80;93.15
59375;BME280;45172;55.006;73.460;2022-07-17T02:54:58;99653.59;;;20.34;94.71
59375;BME280;45172;55.006;73.460;2022-07-17T02:57:24;99662.56;;;19.81;96.02
59375;BME280;45172;55.006;73.460;2022-07-17T02:59:50;99674.47;;;19.45;97.99
59375;BME280;45172;55.006;73.460;2022-07-17T03:02:18;99674.31;;;19.21;99.31
59375;BME280;45172;55.006;73.460;2022-07-17T03:04:51;99687.06;;;18.83;100.00
59375;BME280;45172;55.006;73.460;2022-07-17T03:07:23;99688.91;;;18.49;100.00
59375;BME280;45172;55.006;73.460;2022-07-17T03:09:49;99691.31;;;18.27;100.00
59375;BME280;45172;55.006;73.460;2022-07-17T03:12:15;99688.91;;;18.16;100.00
59375;BME280;45172;55.006;73.460;2022-07-17T03:14:42;99699.03;;;18.03;100.00
59375;BME280;45172;55.006;73.460;2022-07-17T03:17:09;99702.97;;;17.88;100.00
59375;BME280;45172;55.006;73.460;2022-07-17T03:19:35;99708.41;;;17.85;100.00
59375;BME280;45172;55.006;73.460;2022-07-17T03:22:01;99713.03;;;17.78;100.00
59375;BME280;45172;55.006;73.460;2022-07-17T03:24:27;99712.22;;;17.74;100.00
59375;BME280;45172;55.006;73.460;2022-07-17T03:26:53;99722.09;;;17.72;100.00
59375;BME280;45172;55.006;73.460;2022-07-17T03:29:27;99716.50;;;17.45;100.00
59375;BME280;45172;55.006;73.460;2022-07-17T03:31:54;99710.44;;;17.75;100.00
59375;BME280;45172;55.006;73.460;2022-07-17T03:34:20;99720.19;;;17.77;100.00
59375;BME280;45172;55.006;73.460;2022-07-17T03:36:46;99722.75;;;17.84;100.00
59375;BME280;45172;55.006;73.460;2022-07-17T03:39:14;99723.13;;;18.04;100.00
59375;BME280;45172;55.006;73.460;2022-07-17T03:41:40;99714.25;;;18.37;100.00
59375;BME280;45172;55.006;73.460;2022-07-17T03:44:06;99716.13;;;18.67;100.00
59375;BME280;45172;55.006;73.460;2022-07-17T03:46:32;99721.31;;;18.73;100.00
59375;BME280;45172;55.006;73.460;2022-07-17T03:48:59;99738.94;;;18.83;98.93
59375;BME280;45172;55.006;73.460;2022-07-17T03:51:28;99737.81;;;18.90;98.59
59375;BME280;45172;55.006;73.460;2022-07-17T03:54:05;99723.56;;;18.88;98.65
59375;BME280;45172;55.006;73.460;2022-07-17T03:56:31;99737.81;;;18.90;97.99
59375;BME280;45172;55.006;73.460;2022-07-17T03:59:02;99724.38;;;18.90;97.67
59375;BME280;45172;55.006;73.460;2022-07-17T04:01:30;99733.97;;;18.99;97.58
59375;BME280;45172;55.006;73.460;2022-07-17T04:03:57;99723.97;;;19.06;97.11
59375;BME280;45172;55.006;73.460;2022-07-17T04:06:23;99738.00;;;19.16;96.51
59375;BME280;45172;55.006;73.460;2022-07-17T04:08:55;99725.88;;;19.33;97.42
59375;BME280;45172;55.006;73.460;2022-07-17T04:11:22;99720.75;;;19.53;96.91
59375;BME280;45172;55.006;73.460;2022-07-17T04:13:53;99724.91;;;19.64;94.96
59375;BME280;45172;55.006;73.460;2022-07-17T04:16:19;99733.69;;;19.69;94.28
59375;BME280;45172;55.006;73.460;2022-07-17T04:18:45;99729.41;;;19.63;94.61
59375;BME280;45172;55.006;73.460;2022-07-17T04:21:22;99723.44;;;19.82;95.31
59375;BME280;45172;55.006;73.460;2022-07-17T04:23:48;99725.16;;;20.38;93.55
59375;BME280;45172;55.006;73.460;2022-07-17T04:26:14;99732.91;;;20.73;90.59
59375;BME280;45172;55.006;73.460;2022-07-17T04:28:40;99722.09;;;21.00;87.45
59375;BME280;45172;55.006;73.460;2022-07-17T04:31:15;99721.69;;;21.11;87.72
59375;BME280;45172;55.006;73.460;2022-07-17T04:33:41;99724.19;;;20.92;88.37
59375;BME280;45172;55.006;73.460;2022-07-17T04:36:08;99737.25;;;20.77;89.21
59375;BME280;45172;55.006;73.460;2022-07-17T04:38:34;99733.06;;;20.69;88.64
59375;BME280;45172;55.006;73.460;2022-07-17T04:41:01;99737.72;;;20.63;91.09
59375;BME280;45172;55.006;73.460;2022-07-17T04:43:27;99731.56;;;20.60;89.92
59375;BME280;45172;55.006;73.460;2022-07-17T04:45:53;99734.34;;;20.58;91.25
59375;BME280;45172;55.006;73.460;2022-07-17T04:48:20;99744.03;;;20.89;89.77
59375;BME280;45172;55.006;73.460;2022-07-17T04:50:52;99745.59;;;21.19;87.77
59375;BME280;45172;55.006;73.460;2022-07-17T04:55:45;99736.66;;;21.65;86.29
59375;BME280;45172;55.006;73.460;2022-07-17T04:58:11;99738.38;;;21.89;84.04
59375;BME280;45172;55.006;73.460;2022-07-17T05:00:38;99733.91;;;21.88;80.94
59375;BME280;45172;55.006;73.460;2022-07-17T05:03:04;99733.91;;;21.88;80.55
59375;BME280;45172;55.006;73.460;2022-07-17T05:05:30;99743.94;;;21.62;81.73
59375;BME280;45172;55.006;73.460;2022-07-17T05:08:00;99745.22;;;21.52;83.44
59375;BME280;45172;55.006;73.460;2022-07-17T05:10:26;99730.81;;;21.77;84.27
59375;BME280;45172;55.006;73.460;2022-07-17T05:12:57;99743.06;;;22.07;84.13
59375;BME280;45172;55.006;73.460;2022-07-17T05:15:24;99741.91;;;22.12;79.12
59375;BME280;45172;55.006;73.460;2022-07-17T05:17:51;99742.81;;;22.13;78.48
59375;BME280;45172;55.006;73.460;2022-07-17T05:20:17;99742.13;;;22.08;76.67
59375;BME280;45172;55.006;73.460;2022-07-17T05:22:43;99754.34;;;22.16;78.36
59375;BME280;45172;55.006;73.460;2022-07-17T05:25:09;99753.78;;;22.08;78.41
59375;BME280;45172;55.006;73.460;2022-07-17T05:27:35;99757.88;;;21.96;79.33
59375;BME280;45172;55.006;73.460;2022-07-17T05:30:12;99762.09;;;22.24;78.74
59375;BME280;45172;55.006;73.460;2022-07-17T05:32:38;99767.94;;;22.36;77.67
59375;BME280;45172;55.006;73.460;2022-07-17T05:35:04;99772.97;;;22.23;77.40
59375;BME280;45172;55.006;73.460;2022-07-17T05:37:41;99760.69;;;22.15;77.49
59375;BME280;45172;55.006;73.460;2022-07-17T05:40:07;99755.09;;;22.41;76.15
59375;BME280;45172;55.006;73.460;2022-07-17T05:42:33;99765.47;;;22.52;64.07
59375;BME280;45172;55.006;73.460;2022-07-17T05:45:00;99767.84;;;22.60;63.05
59375;BME280;45172;55.006;73.460;2022-07-17T05:47:26;99761.94;;;22.50;63.00
59375;BME280;45172;55.006;73.460;2022-07-17T05:49:52;99761.44;;;22.62;63.26
59375;BME280;45172;55.006;73.460;2022-07-17T05:52:19;99763.19;;;22.84;63.25
59375;BME280;45172;55.006;73.460;2022-07-17T05:54:45;99773.97;;;22.84;61.89
59375;BME280;45172;55.006;73.460;2022-07-17T05:57:10;99770.53;;;22.80;61.27
59375;BME280;45172;55.006;73.460;2022-07-17T05:59:41;99774.72;;;22.67;60.52
59375;BME280;45172;55.006;73.460;2022-07-17T06:02:11;99759.28;;;22.70;61.35
59375;BME280;45172;55.006;73.460;2022-07-17T06:04:37;99776.53;;;22.87;62.34
59375;BME280;45172;55.006;73.460;2022-07-17T06:07:03;99778.47;;;23.04;61.72
59375;BME280;45172;55.006;73.460;2022-07-17T06:09:30;99768.78;;;23.19;61.27
59375;BME280;45172;55.006;73.460;2022-07-17T06:12:00;99769.50;;;23.44;59.68
59375;BME280;45172;55.006;73.460;2022-07-17T06:14:26;99776.13;;;23.56;59.57
59375;BME280;45172;55.006;73.460;2022-07-17T06:16:52;99777.16;;;23.53;59.28
59375;BME280;45172;55.006;73.460;2022-07-17T06:19:18;99786.06;;;23.36;58.62
59375;BME280;45172;55.006;73.460;2022-07-17T06:21:44;99779.38;;;23.24;58.27
59375;BME280;45172;55.006;73.460;2022-07-17T06:24:14;99777.31;;;23.31;57.39
59375;BME280;45172;55.006;73.460;2022-07-17T06:26:40;99778.63;;;23.41;56.18
59375;BME280;45172;55.006;73.460;2022-07-17T06:29:07;99773.22;;;23.41;57.74
59375;BME280;45172;55.006;73.460;2022-07-17T06:31:40;99779.84;;;23.53;56.17
59375;BME280;45172;55.006;73.460;2022-07-17T06:34:06;99790.38;;;23.40;54.83
59375;BME280;45172;55.006;73.460;2022-07-17T06:36:32;99779.13;;;23.49;55.39
59375;BME280;45172;55.006;73.460;2022-07-17T06:38:58;99781.66;;;23.52;54.79
59375;BME280;45172;55.006;73.460;2022-07-17T06:41:43;99777.38;;;23.48;54.83
59375;BME280;45172;55.006;73.460;2022-07-17T06:44:09;99776.66;;;23.64;55.95
59375;BME280;45172;55.006;73.460;2022-07-17T06:46:37;99771.97;;;23.67;55.00
59375;BME280;45172;55.006;73.460;2022-07-17T06:49:03;99780.31;;;23.63;54.85
59375;BME280;45172;55.006;73.460;2022-07-17T06:51:39;99776.66;;;23.64;55.20
59375;BME280;45172;55.006;73.460;2022-07-17T06:54:06;99782.22;;;23.61;55.52
59375;BME280;45172;55.006;73.460;2022-07-17T06:56:32;99783.94;;;23.81;56.26
59375;BME280;45172;55.006;73.460;2022-07-17T06:58:58;99783.22;;;23.77;54.04
59375;BME280;45172;55.006;73.460;2022-07-17T07:01:24;99770.81;;;23.91;54.47
59375;BME280;45172;55.006;73.460;2022-07-17T07:03:55;99779.75;;;23.93;51.75
59375;BME280;45172;55.006;73.460;2022-07-17T07:06:22;99781.28;;;23.99;53.48
59375;BME280;45172;55.006;73.460;2022-07-17T07:08:47;99787.03;;;24.10;52.87
59375;BME280;45172;55.006;73.460;2022-07-17T07:11:13;99785.66;;;24.01;51.62
59375;BME280;45172;55.006;73.460;2022-07-17T07:13:40;99783.09;;;23.98;52.00
59375;BME280;45172;55.006;73.460;2022-07-17T07:16:06;99784.03;;;24.16;52.98
59375;BME280;45172;55.006;73.460;2022-07-17T07:18:32;99781.50;;;24.31;50.63
59375;BME280;45172;55.006;73.460;2022-07-17T07:20:58;99787.09;;;24.28;50.45
59375;BME280;45172;55.006;73.460;2022-07-17T07:23:24;99806.34;;;24.21;48.87
59375;BME280;45172;55.006;73.460;2022-07-17T07:25:50;99800.13;;;24.19;48.79
59375;BME280;45172;55.006;73.460;2022-07-17T07:28:17;99799.72;;;24.10;47.88
59375;BME280;45172;55.006;73.460;2022-07-17T07:30:43;99795.31;;;24.07;47.01
59375;BME280;45172;55.006;73.460;2022-07-17T07:33:09;99806.81;;;24.12;46.04
59375;BME280;45172;55.006;73.460;2022-07-17T07:35:35;99807.38;;;24.19;46.88
59375;BME280;45172;55.006;73.460;2022-07-17T07:38:02;99799.84;;;24.06;46.50
59375;BME280;45172;55.006;73.460;2022-07-17T07:40:30;99797.97;;;24.26;47.30
59375;BME280;45172;55.006;73.460;2022-07-17T07:42:57;99793.00;;;24.36;47.80
59375;BME280;45172;55.006;73.460;2022-07-17T07:45:23;99798.16;;;24.23;46.73
59375;BME280;45172;55.006;73.460;2022-07-17T07:47:50;99789.22;;;24.21;46.86
59375;BME280;45172;55.006;73.460;2022-07-17T07:50:18;99796.06;;;24.11;48.63
59375;BME280;45172;55.006;73.460;2022-07-17T07:52:49;99801.97;;;24.37;50.03
59375;BME280;45172;55.006;73.460;2022-07-17T07:55:17;99797.69;;;24.50;49.18
59375;BME280;45172;55.006;73.460;2022-07-17T07:57:43;99797.84;;;24.65;48.40
59375;BME280;45172;55.006;73.460;2022-07-17T08:00:11;99798.97;;;24.78;49.11
59375;BME280;45172;55.006;73.460;2022-07-17T08:02:47;99791.16;;;24.89;48.80
59375;BME280;45172;55.006;73.460;2022-07-17T08:05:14;99804.34;;;25.13;49.87
59375;BME280;45172;55.006;73.460;2022-07-17T08:07:40;99795.81;;;25.21;48.75
59375;BME280;45172;55.006;73.460;2022-07-17T08:10:07;99801.56;;;25.15;47.90
59375;BME280;45172;55.006;73.460;2022-07-17T08:12:33;99805.22;;;25.14;50.34
59375;BME280;45172;55.006;73.460;2022-07-17T08:15:00;99818.06;;;25.10;48.45
59375;BME280;45172;55.006;73.460;2022-07-17T08:17:30;99810.59;;;25.15;48.18
59375;BME280;45172;55.006;73.460;2022-07-17T08:19:56;99805.16;;;25.15;48.28
59375;BME280;45172;55.006;73.460;2022-07-17T08:22:28;99804.06;;;25.36;48.56
59375;BME280;45172;55.006;73.460;2022-07-17T08:24:54;99798.53;;;25.37;47.50
59375;BME280;45172;55.006;73.460;2022-07-17T08:27:20;99808.69;;;25.51;47.10
59375;BME280;45172;55.006;73.460;2022-07-17T08:29:47;99796.66;;;25.22;45.69
59375;BME280;45172;55.006;73.460;2022-07-17T08:32:13;99814.91;;;25.02;47.33
59375;BME280;45172;55.006;73.460;2022-07-17T08:34:39;99801.84;;;24.93;47.40
59375;BME280;45172;55.006;73.460;2022-07-17T08:37:06;99804.97;;;25.19;46.98
59375;BME280;45172;55.006;73.460;2022-07-17T08:39:32;99817.63;;;25.36;46.93
59375;BME280;45172;55.006;73.460;2022-07-17T08:41:58;99820.59;;;25.31;45.58
59375;BME280;45172;55.006;73.460;2022-07-17T08:44:24;99814.53;;;25.26;45.94
59375;BME280;45172;55.006;73.460;2022-07-17T08:46:57;99814.09;;;25.34;45.96
59375;BME280;45172;55.006;73.460;2022-07-17T08:49:24;99832.28;;;25.31;41.58
59375;BME280;45172;55.006;73.460;2022-07-17T08:51:59;99833.50;;;25.26;43.58
59375;BME280;45172;55.006;73.460;2022-07-17T08:54:25;99830.34;;;25.17;46.19
59375;BME280;45172;55.006;73.460;2022-07-17T08:56:51;99827.63;;;25.17;45.75
59375;BME280;45172;55.006;73.460;2022-07-17T08:59:17;99830.72;;;25.27;47.74
59375;BME280;45172;55.006;73.460;2022-07-17T09:01:43;99830.66;;;25.45;46.57
59375;BME280;45172;55.006;73.460;2022-07-17T09:04:09;99839.06;;;25.40;45.21
59375;BME280;45172;55.006;73.460;2022-07-17T09:06:42;99833.63;;;25.40;44.75
59375;BME280;45172;55.006;73.460;2022-07-17T09:09:11;99819.38;;;25.37;41.93
59375;BME280;45172;55.006;73.460;2022-07-17T09:11:48;99839.28;;;25.53;43.05
59375;BME280;45172;55.006;73.460;2022-07-17T09:14:20;99840.78;;;25.75;42.33
59375;BME280;45172;55.006;73.460;2022-07-17T09:16:57;99835.69;;;25.53;44.10
59375;BME280;45172;55.006;73.460;2022-07-17T09:19:35;99823.13;;;25.68;46.48
59375;BME280;45172;55.006;73.460;2022-07-17T09:22:18;99831.84;;;25.57;45.11
59375;BME280;45172;55.006;73.460;2022-07-17T09:24:48;99832.09;;;25.19;45.79
59375;BME280;45172;55.006;73.460;2022-07-17T09:27:32;99835.53;;;24.87;45.77
59375;BME280;45172;55.006;73.460;2022-07-17T09:30:11;99834.25;;;25.12;46.16
59375;BME280;45172;55.006;73.460;2022-07-17T09:32:39;99834.38;;;25.26;43.22
59375;BME280;45172;55.006;73.460;2022-07-17T09:35:10;99845.69;;;25.35;42.95
59375;BME280;45172;55.006;73.460;2022-07-17T09:37:37;99836.34;;;25.40;42.95
59375;BME280;45172;55.006;73.460;2022-07-17T09:40:10;99840.16;;;25.54;44.50
59375;BME280;45172;55.006;73.460;2022-07-17T09:42:36;99844.63;;;25.71;42.67
59375;BME280;45172;55.006;73.460;2022-07-17T09:45:08;99845.34;;;25.58;40.17
59375;BME280;45172;55.006;73.460;2022-07-17T09:47:37;99847.19;;;25.40;39.40
59375;BME280;45172;55.006;73.460;2022-07-17T09:50:06;99848.53;;;25.31;40.34
59375;BME280;45172;55.006;73.460;2022-07-17T09:52:35;99843.91;;;25.34;42.13
59375;BME280;45172;55.006;73.460;2022-07-17T09:55:02;99843.59;;;25.57;42.83
59375;BME280;45172;55.006;73.460;2022-07-17T09:57:33;99843.84;;;25.35;43.58
59375;BME280;45172;55.006;73.460;2022-07-17T10:00:04;99844.63;;;25.37;43.70
59375;BME280;45172;55.006;73.460;2022-07-17T10:02:42;99846.53;;;25.19;42.73
59375;BME280;45172;55.006;73.460;2022-07-17T10:05:13;99850.69;;;25.42;42.45
59375;BME280;45172;55.006;73.460;2022-07-17T10:07:44;99855.84;;;25.47;41.14
59375;BME280;45172;55.006;73.460;2022-07-17T10:10:12;99847.22;;;25.56;39.39
59375;BME280;45172;55.006;73.460;2022-07-17T10:12:50;99862.91;;;25.51;40.42
59375;BME280;45172;55.006;73.460;2022-07-17T10:15:27;99863.16;;;25.63;40.87
59375;BME280;45172;55.006;73.460;2022-07-17T10:18:06;99865.63;;;25.67;39.45
59375;BME280;45172;55.006;73.460;2022-07-17T10:20:34;99867.84;;;25.77;40.58
59375;BME280;45172;55.006;73.460;2022-07-17T10:23:11;99862.72;;;25.54;40.98
59375;BME280;45172;55.006;73.460;2022-07-17T10:25:43;99871.66;;;25.39;39.77
59375;BME280;45172;55.006;73.460;2022-07-17T10:28:09;99868.94;;;25.39;39.34
59375;BME280;45172;55.006;73.460;2022-07-17T10:30:41;99875.97;;;25.25;38.61
59375;BME280;45172;55.006;73.460;2022-07-17T10:33:08;99874.22;;;25.24;38.75
59375;BME280;45172;55.006;73.460;2022-07-17T10:35:48;99873.94;;;25.13;37.88
59375;BME280;45172;55.006;73.460;2022-07-17T10:38:15;99873.13;;;25.28;37.65
59375;BME280;45172;55.006;73.460;2022-07-17T10:40:41;99871.97;;;25.33;40.07
59375;BME280;45172;55.006;73.460;2022-07-17T10:43:09;99876.94;;;25.24;39.47
59375;BME280;45172;55.006;73.460;2022-07-17T10:45:45;99876.06;;;25.06;41.07
59375;BME280;45172;55.006;73.460;2022-07-17T10:48:17;99875.91;;;25.27;42.16
59375;BME280;45172;55.006;73.460;2022-07-17T10:50:54;99877.66;;;25.28;43.04
59375;BME280;45172;55.006;73.460;2022-07-17T10:53:40;99873.97;;;25.29;43.54
59375;BME280;45172;55.006;73.460;2022-07-17T10:56:08;99879.88;;;25.55;42.71
59375;BME280;45172;55.006;73.460;2022-07-17T10:58:40;99879.94;;;25.53;42.96
59375;BME280;45172;55.006;73.460;2022-07-17T11:01:15;99887.13;;;25.54;42.18
59375;BME280;45172;55.006;73.460;2022-07-17T11:06:26;99876.84;;;25.61;41.37
59375;BME280;45172;55.006;73.460;2022-07-17T11:08:54;99890.91;;;25.68;41.08
59375;BME280;45172;55.006;73.460;2022-07-17T11:14:25;99902.28;;;25.58;40.30
59375;BME280;45172;55.006;73.460;2022-07-17T11:16:57;99893.31;;;25.56;39.06
59375;BME280;45172;55.006;73.460;2022-07-17T11:19:32;99899.09;;;25.33;40.49
59375;BME280;45172;55.006;73.460;2022-07-17T11:22:02;99891.66;;;25.36;42.00
59375;BME280;45172;55.006;73.460;2022-07-17T11:24:43;99890.50;;;25.07;40.85
59375;BME280;45172;55.006;73.460;2022-07-17T11:27:29;99887.88;;;25.23;42.94
59375;BME280;45172;55.006;73.460;2022-07-17T11:29:59;99888.22;;;25.50;41.31
59375;BME280;45172;55.006;73.460;2022-07-17T11:32:35;99894.31;;;25.38;42.02
59375;BME280;45172;55.006;73.460;2022-07-17T11:35:14;99898.47;;;25.10;41.73
59375;BME280;45172;55.006;73.460;2022-07-17T11:37:40;99889.25;;;25.14;41.71
59375;BME280;45172;55.006;73.460;2022-07-17T11:40:06;99899.50;;;25.25;41.31
59375;BME280;45172;55.006;73.460;2022-07-17T11:42:38;99903.06;;;25.25;42.54
59375;BME280;45172;55.006;73.460;2022-07-17T11:45:14;99901.91;;;25.31;41.96
59375;BME280;45172;55.006;73.460;2022-07-17T11:47:45;99906.59;;;25.27;42.13
59375;BME280;45172;55.006;73.460;2022-07-17T11:50:25;99898.06;;;25.17;41.56
59375;BME280;45172;55.006;73.460;2022-07-17T11:52:51;99900.53;;;25.22;41.03
59375;BME280;45172;55.006;73.460;2022-07-17T11:55:18;99897.19;;;25.35;41.30
59375;BME280;45172;55.006;73.460;2022-07-17T11:57:49;99899.50;;;25.25;41.77
59375;BME280;45172;55.006;73.460;2022-07-17T12:00:18;99904.44;;;25.34;42.15
59375;BME280;45172;55.006;73.460;2022-07-17T12:02:45;99912.56;;;25.34;41.56
59375;BME280;45172;55.006;73.460;2022-07-17T12:05:13;99906.84;;;25.23;41.97
59375;BME280;45172;55.006;73.460;2022-07-17T12:07:46;99913.69;;;25.12;41.18
59375;BME280;45172;55.006;73.460;2022-07-17T12:12:39;99924.03;;;25.22;41.42
59375;BME280;45172;55.006;73.460;2022-07-17T12:15:15;99926.03;;;25.18;41.82
59375;BME280;45172;55.006;73.460;2022-07-17T12:17:42;99923.09;;;24.87;42.37
59375;BME280;45172;55.006;73.460;2022-07-17T12:20:08;99922.38;;;24.84;42.87
59375;BME280;45172;55.006;73.460;2022-07-17T12:22:47;99921.66;;;24.80;42.60
59375;BME280;45172;55.006;73.460;2022-07-17T12:25:27;99927.50;;;24.90;41.84
59375;BME280;45172;55.006;73.460;2022-07-17T12:28:04;99934.59;;;24.93;42.20
59375;BME280;45172;55.006;73.460;2022-07-17T12:30:30;99938.16;;;24.93;41.90
59375;BME280;45172;55.006;73.460;2022-07-17T12:32:58;99940.06;;;25.09;42.69
59375;BME280;45172;55.006;73.460;2022-07-17T12:35:26;99937.28;;;24.93;42.50
59375;BME280;45172;55.006;73.460;2022-07-17T12:37:52;99938.72;;;25.00;41.60
59375;BME280;45172;55.006;73.460;2022-07-17T12:40:20;99942.47;;;24.97;40.97
59375;BME280;45172;55.006;73.460;2022-07-17T12:45:30;99936.72;;;24.86;42.04
59375;BME280;45172;55.006;73.460;2022-07-17T12:47:56;99933.47;;;24.77;42.43
59375;BME280;45172;55.006;73.460;2022-07-17T12:50:22;99943.50;;;24.58;42.13
59375;BME280;45172;55.006;73.460;2022-07-17T12:52:48;99956.00;;;24.41;42.41
59375;BME280;45172;55.006;73.460;2022-07-17T12:55:14;99954.56;;;24.34;41.86
59375;BME280;45172;55.006;73.460;2022-07-17T12:57:40;99959.69;;;24.21;42.25
59375;BME280;45172;55.006;73.460;2022-07-17T13:00:06;99960.06;;;24.13;43.08
59375;BME280;45172;55.006;73.460;2022-07-17T13:02:33;99965.91;;;24.23;43.18
59375;BME280;45172;55.006;73.460;2022-07-17T13:05:08;99964.22;;;24.20;42.96
59375;BME280;45172;55.006;73.460;2022-07-17T13:07:34;99969.63;;;24.20;43.63
59375;BME280;45172;55.006;73.460;2022-07-17T13:10:19;99964.22;;;24.40;43.11
59375;BME280;45172;55.006;73.460;2022-07-17T13:12:45;99968.91;;;24.36;43.79
59375;BME280;45172;55.006;73.460;2022-07-17T13:15:11;99971.09;;;24.28;44.25